Time;durP1;ratioP1;P1;durP2;ratioP2;P2;SDS_P1;SDS_P2;PMS_P1;PMS_P2;Temp;Humidity;BMP_temperature;BMP_pressure;BME280_temperature;BME280_humidity;BME280_pressure;Samples;Min_cycle;Max_cycle;Signal;HPM_P1;HPM_P2
2022/09/07 00:02:19;;;;;;;15.48;3.95;;;;;;;;;;5010020;28;20034;-80
2022/09/07 00:04:45;;;;;;;14.23;3.25;;;;;;;;;;5004218;28;20045;-81
2022/09/07 00:07:11;;;;;;;14.35;3.47;;;;;;;;;;4988959;28;20051;-81
2022/09/07 00:09:37;;;;;;;12.00;4.00;;;;;;;;;;4986747;28;20026;-80
2022/09/07 00:12:03;;;;;;;11.30;3.65;;;;;;;;;;4975135;28;20564;-80
2022/09/07 00:14:29;;;;;;;13.07;3.33;;;;;;;;;;4978810;28;20034;-80
2022/09/07 00:16:55;;;;;;;13.48;3.45;;;;;;;;;;4990605;28;20037;-80
2022/09/07 00:19:21;;;;;;;10.75;3.08;;;;;;;;;;4984538;28;20492;-80
2022/09/07 00:21:47;;;;;;;10.85;3.10;;;;;;;;;;4989612;28;20034;-80
2022/09/07 00:24:14;;;;;;;13.48;3.30;;;;;;;;;;4989693;28;20022;-80
2022/09/07 00:26:40;;;;;;;9.70;2.78;;;;;;;;;;4989268;28;20038;-80
2022/09/07 00:29:06;;;;;;;9.38;2.70;;;;;;;;;;4975472;28;20036;-80
2022/09/07 00:31:33;;;;;;;10.73;3.10;;;;;;;;;;4989691;28;20040;-80
2022/09/07 00:34:00;;;;;;;19.15;3.53;;;;;;;;;;4986599;28;20034;-80
2022/09/07 00:36:26;;;;;;;13.00;3.47;;;;;;;;;;4984194;28;20038;-80
2022/09/07 00:38:53;;;;;;;9.65;2.83;;;;;;;;;;4990098;28;20162;-80
2022/09/07 00:41:20;;;;;;;10.50;3.53;;;;;;;;;;4982905;28;20030;-80
2022/09/07 00:43:47;;;;;;;15.27;4.22;;;;;;;;;;4981392;28;20038;-80
2022/09/07 00:46:17;;;;;;;11.95;3.47;;;;;;;;;;4985921;28;20077;-80
2022/09/07 00:48:55;;;;;;;14.45;3.83;;;;;;;;;;4979653;28;20034;-80
2022/09/07 00:51:25;;;;;;;11.57;3.35;;;;;;;;;;4984504;28;20058;-80
2022/09/07 00:53:56;;;;;;;12.45;2.88;;;;;;;;;;4980038;28;20035;-80
2022/09/07 00:56:24;;;;;;;15.75;3.15;;;;;;;;;;4989188;28;20034;-80
2022/09/07 00:58:50;;;;;;;13.30;3.42;;;;;;;;;;4990213;28;20031;-80
2022/09/07 01:01:16;;;;;;;13.93;3.25;;;;;;;;;;4980888;28;20031;-80
2022/09/07 01:03:44;;;;;;;14.40;3.80;;;;;;;;;;4985193;28;20115;-80
2022/09/07 01:06:10;;;;;;;10.15;3.00;;;;;;;;;;4988832;28;20047;-80
2022/09/07 01:08:37;;;;;;;12.82;3.58;;;;;;;;;;5001821;28;20038;-80
2022/09/07 01:11:03;;;;;;;8.82;3.70;;;;;;;;;;5003218;28;20034;-80
2022/09/07 01:13:29;;;;;;;11.30;4.57;;;;;;;;;;5005837;28;20152;-80
2022/09/07 01:16:02;;;;;;;13.48;5.18;;;;;;;;;;4999024;28;20070;-80
2022/09/07 01:18:28;;;;;;;13.65;3.90;;;;;;;;;;5008750;28;20036;-80
2022/09/07 01:21:06;;;;;;;13.27;4.18;;;;;;;;;;5010372;28;20037;-80
2022/09/07 01:23:51;;;;;;;10.45;4.03;;;;;;;;;;5011728;28;20044;-80
2022/09/07 01:26:30;;;;;;;7.18;2.72;;;;;;;;;;5011978;28;20037;-80
2022/09/07 01:29:05;;;;;;;11.95;3.92;;;;;;;;;;5012233;28;20038;-80
2022/09/07 01:31:48;;;;;;;16.25;3.20;;;;;;;;;;5007528;28;20034;-81
2022/09/07 01:34:14;;;;;;;12.25;3.08;;;;;;;;;;5009539;28;20076;-80
2022/09/07 01:36:44;;;;;;;15.82;3.65;;;;;;;;;;5012965;28;20065;-80
2022/09/07 01:39:11;;;;;;;13.50;3.35;;;;;;;;;;5006769;28;20034;-80
2022/09/07 01:42:03;;;;;;;15.38;4.78;;;;;;;;;;5003968;28;20030;-80
2022/09/07 01:44:29;;;;;;;;;;;;;;;;;;4990987;28;20108;-79
2022/09/07 01:47:00;;;;;;;15.07;6.18;;;;;;;;;;5008112;28;20053;-80
2022/09/07 01:49:29;;;;;;;21.58;5.95;;;;;;;;;;5009619;28;20474;-80
2022/09/07 01:51:58;;;;;;;13.93;3.20;;;;;;;;;;4993424;28;20444;-80
2022/09/07 01:54:31;;;;;;;14.70;3.92;;;;;;;;;;4993228;28;20424;-80
2022/09/07 01:57:00;;;;;;;15.18;3.33;;;;;;;;;;5004225;28;20045;-80
2022/09/07 01:59:32;;;;;;;11.38;2.92;;;;;;;;;;4999789;28;20495;-80
2022/09/07 02:02:03;;;;;;;14.68;3.13;;;;;;;;;;5012011;28;20482;-80
2022/09/07 02:04:35;;;;;;;11.88;3.75;;;;;;;;;;5007546;28;20030;-80
2022/09/07 02:07:10;;;;;;;14.85;4.65;;;;;;;;;;5012309;28;20129;-80
2022/09/07 02:09:36;;;;;;;14.63;5.40;;;;;;;;;;5008774;28;20566;-80
2022/09/07 02:12:05;;;;;;;14.05;6.00;;;;;;;;;;5004286;28;20380;-79
2022/09/07 02:14:35;;;;;;;13.75;4.90;;;;;;;;;;5010868;28;20021;-80
2022/09/07 02:17:11;;;;;;;14.30;4.85;;;;;;;;;;5012091;28;20072;-80
2022/09/07 02:19:40;;;;;;;11.90;3.35;;;;;;;;;;5010722;28;20018;-80
2022/09/07 02:22:09;;;;;;;12.57;3.38;;;;;;;;;;5002272;28;20034;-80
2022/09/07 02:24:40;;;;;;;17.23;3.75;;;;;;;;;;5000780;28;20021;-80
2022/09/07 02:27:10;;;;;;;12.32;4.25;;;;;;;;;;5003096;28;20030;-80
2022/09/07 02:29:37;;;;;;;16.02;4.88;;;;;;;;;;5006465;28;20022;-80
2022/09/07 02:32:03;;;;;;;15.27;5.60;;;;;;;;;;4999784;28;20117;-80
2022/09/07 02:34:29;;;;;;;13.10;5.40;;;;;;;;;;5006416;28;20025;-80
2022/09/07 02:36:56;;;;;;;10.73;4.32;;;;;;;;;;5007603;28;20529;-81
2022/09/07 02:39:22;;;;;;;15.98;4.10;;;;;;;;;;5011236;28;20770;-81
2022/09/07 02:41:48;;;;;;;13.27;4.53;;;;;;;;;;5007940;28;20065;-80
2022/09/07 02:44:19;;;;;;;21.10;8.35;;;;;;;;;;5006612;28;20030;-80
2022/09/07 02:47:01;;;;;;;18.20;11.63;;;;;;;;;;5004692;28;20773;-80
2022/09/07 02:49:33;;;;;;;21.20;13.57;;;;;;;;;;5003179;28;20036;-80
2022/09/07 02:51:59;;;;;;;;;;;;;;;;;;5003375;28;20416;-80
2022/09/07 02:54:25;;;;;;;10.73;3.00;;;;;;;;;;5003619;28;19952;-80
2022/09/07 02:56:56;;;;;;;12.02;2.78;;;;;;;;;;5009538;28;20042;-80
2022/09/07 02:59:22;;;;;;;12.73;3.08;;;;;;;;;;5005851;28;20501;-81
2022/09/07 03:02:03;;;;;;;11.50;3.70;;;;;;;;;;5010297;28;20088;-80
2022/09/07 03:04:53;;;;;;;13.95;4.82;;;;;;;;;;4991347;28;20490;-80
2022/09/07 03:07:25;;;;;;;10.55;3.67;;;;;;;;;;5006991;28;20082;-81
2022/09/07 03:09:53;;;;;;;12.45;3.65;;;;;;;;;;5007486;28;20570;-80
2022/09/07 03:12:20;;;;;;;13.60;4.00;;;;;;;;;;4995946;28;20070;-80
2022/09/07 03:14:46;;;;;;;13.70;4.78;;;;;;;;;;5009877;28;20112;-80
2022/09/07 03:17:12;;;;;;;21.23;5.55;;;;;;;;;;5000785;28;20041;-80
2022/09/07 03:19:38;;;;;;;17.13;4.80;;;;;;;;;;4997283;28;20049;-80
2022/09/07 03:22:05;;;;;;;15.35;3.85;;;;;;;;;;5010088;28;20041;-81
2022/09/07 03:24:31;;;;;;;12.38;3.10;;;;;;;;;;5000160;28;20407;-80
2022/09/07 03:26:57;;;;;;;11.25;3.30;;;;;;;;;;5007118;28;20467;-79
2022/09/07 03:29:23;;;;;;;12.93;3.08;;;;;;;;;;4993876;28;20026;-80
2022/09/07 03:31:49;;;;;;;20.65;3.40;;;;;;;;;;4991861;28;20034;-80
2022/09/07 03:34:15;;;;;;;15.55;4.75;;;;;;;;;;5005183;28;20065;-80
2022/09/07 03:36:41;;;;;;;11.35;4.43;;;;;;;;;;5002554;28;20062;-80
2022/09/07 03:39:09;;;;;;;19.90;4.80;;;;;;;;;;5005819;28;20491;-80
2022/09/07 03:41:35;;;;;;;17.50;4.20;;;;;;;;;;5009750;28;20044;-80
2022/09/07 03:44:05;;;;;;;14.98;3.33;;;;;;;;;;5001543;28;20038;-80
2022/09/07 03:46:31;;;;;;;14.45;2.85;;;;;;;;;;4991164;28;20039;-80
2022/09/07 03:48:57;;;;;;;12.95;3.10;;;;;;;;;;5005010;28;20420;-80
2022/09/07 03:51:23;;;;;;;16.45;3.10;;;;;;;;;;4998711;28;20111;-79
2022/09/07 03:53:50;;;;;;;13.25;2.92;;;;;;;;;;5009532;28;20034;-80
2022/09/07 03:56:23;;;;;;;14.90;3.45;;;;;;;;;;4991575;28;20395;-80
2022/09/07 03:58:49;;;;;;;16.58;3.35;;;;;;;;;;5006010;28;20069;-80
2022/09/07 04:01:17;;;;;;;10.23;3.03;;;;;;;;;;5008923;28;20042;-80
2022/09/07 04:03:43;;;;;;;16.58;5.18;;;;;;;;;;5009872;28;20032;-81
2022/09/07 04:06:10;;;;;;;14.00;5.63;;;;;;;;;;4997569;28;20493;-80
2022/09/07 04:08:36;;;;;;;17.45;5.38;;;;;;;;;;5006475;28;20114;-80
2022/09/07 04:11:04;;;;;;;10.23;3.20;;;;;;;;;;5009926;28;20043;-80
2022/09/07 04:13:30;;;;;;;13.88;2.90;;;;;;;;;;5009299;28;20033;-80
2022/09/07 04:15:56;;;;;;;10.50;3.55;;;;;;;;;;5009756;28;20056;-80
2022/09/07 04:18:23;;;;;;;15.77;5.40;;;;;;;;;;5008880;28;20033;-80
2022/09/07 04:20:49;;;;;;;10.90;4.20;;;;;;;;;;5010166;28;20049;-81
2022/09/07 04:23:16;;;;;;;13.40;3.80;;;;;;;;;;4998354;28;20033;-81
2022/09/07 04:25:49;;;;;;;21.02;4.22;;;;;;;;;;4999580;28;20034;-80
2022/09/07 04:28:19;;;;;;;12.90;4.07;;;;;;;;;;5003304;28;20069;-80
2022/09/07 04:30:45;;;;;;;15.38;4.78;;;;;;;;;;5009427;28;20366;-80
2022/09/07 04:33:12;;;;;;;12.02;3.35;;;;;;;;;;5000587;28;20034;-80
2022/09/07 04:35:39;;;;;;;15.75;3.53;;;;;;;;;;5004535;28;20041;-80
2022/09/07 04:38:05;;;;;;;13.55;3.80;;;;;;;;;;5008052;28;20026;-80
2022/09/07 04:40:32;;;;;;;12.55;3.63;;;;;;;;;;5008885;28;20105;-80
2022/09/07 04:42:58;;;;;;;10.93;3.28;;;;;;;;;;4998965;28;20076;-80
2022/09/07 04:45:24;;;;;;;11.82;3.78;;;;;;;;;;5008416;28;20084;-80
2022/09/07 04:47:50;;;;;;;13.50;4.65;;;;;;;;;;5009775;28;20675;-80
2022/09/07 04:50:17;;;;;;;13.35;4.57;;;;;;;;;;5012606;28;20112;-80
2022/09/07 04:52:44;;;;;;;16.15;3.03;;;;;;;;;;5007017;28;20069;-80
2022/09/07 04:55:11;;;;;;;13.77;3.65;;;;;;;;;;5000600;28;20038;-79
2022/09/07 04:57:37;;;;;;;9.18;3.05;;;;;;;;;;5012743;28;20664;-80
2022/09/07 05:00:07;;;;;;;8.25;2.70;;;;;;;;;;5010245;28;20026;-80
2022/09/07 05:02:33;;;;;;;11.85;3.45;;;;;;;;;;5015526;28;20150;-80
2022/09/07 05:04:59;;;;;;;9.23;3.20;;;;;;;;;;5007413;28;20045;-80
2022/09/07 05:07:25;;;;;;;15.18;3.60;;;;;;;;;;5014661;28;20042;-80
2022/09/07 05:09:51;;;;;;;11.60;4.05;;;;;;;;;;5013555;28;20044;-80
2022/09/07 05:12:17;;;;;;;10.95;4.53;;;;;;;;;;5014399;28;20038;-79
2022/09/07 05:14:43;;;;;;;14.55;3.70;;;;;;;;;;5012827;28;20797;-80
2022/09/07 05:17:09;;;;;;;13.85;4.88;;;;;;;;;;5012310;28;20036;-80
2022/09/07 05:19:35;;;;;;;14.45;4.13;;;;;;;;;;5010694;28;20029;-80
2022/09/07 05:22:01;;;;;;;10.82;4.40;;;;;;;;;;5017251;28;20441;-79
2022/09/07 05:24:27;;;;;;;12.45;3.78;;;;;;;;;;5011438;28;20025;-79
2022/09/07 05:26:53;;;;;;;8.93;3.35;;;;;;;;;;5010201;28;20101;-79
2022/09/07 05:29:19;;;;;;;15.68;3.63;;;;;;;;;;5010310;28;20076;-79
2022/09/07 05:31:46;;;;;;;14.45;4.22;;;;;;;;;;5002827;28;20033;-78
2022/09/07 05:34:14;;;;;;;14.88;3.72;;;;;;;;;;5014233;28;20498;-79
2022/09/07 05:36:40;;;;;;;11.80;3.25;;;;;;;;;;5008397;28;20041;-80
2022/09/07 05:39:07;;;;;;;10.82;3.05;;;;;;;;;;5006326;28;20033;-80
2022/09/07 05:41:33;;;;;;;11.85;3.38;;;;;;;;;;5010975;28;20035;-81
2022/09/07 05:43:59;;;;;;;10.88;2.88;;;;;;;;;;5007220;28;20033;-79
2022/09/07 05:46:25;;;;;;;14.10;3.15;;;;;;;;;;5014239;28;20036;-80
2022/09/07 05:48:52;;;;;;;10.38;3.13;;;;;;;;;;5014719;28;20554;-80
2022/09/07 05:51:18;;;;;;;12.00;2.50;;;;;;;;;;5011473;28;20038;-80
2022/09/07 05:53:49;;;;;;;11.00;3.03;;;;;;;;;;5008633;28;20717;-80
2022/09/07 05:56:15;;;;;;;17.58;3.42;;;;;;;;;;5003670;28;20034;-80
2022/09/07 05:58:41;;;;;;;13.85;2.88;;;;;;;;;;5015386;28;20034;-80
2022/09/07 06:01:09;;;;;;;15.27;2.97;;;;;;;;;;5013557;28;20053;-80
2022/09/07 06:03:35;;;;;;;16.02;3.33;;;;;;;;;;5010760;28;20080;-80
2022/09/07 06:06:06;;;;;;;12.13;3.50;;;;;;;;;;5004006;28;20061;-80
2022/09/07 06:08:33;;;;;;;12.60;2.92;;;;;;;;;;5007074;28;20041;-80
2022/09/07 06:11:04;;;;;;;12.98;2.72;;;;;;;;;;5011796;28;20034;-80
2022/09/07 06:13:30;;;;;;;14.35;2.78;;;;;;;;;;4995987;28;20041;-80
2022/09/07 06:16:00;;;;;;;9.85;2.15;;;;;;;;;;5012545;28;20045;-80
2022/09/07 06:18:28;;;;;;;13.95;2.83;;;;;;;;;;5009379;28;20029;-80
2022/09/07 06:20:54;;;;;;;12.73;2.88;;;;;;;;;;5009169;28;20112;-80
2022/09/07 06:23:20;;;;;;;13.02;3.03;;;;;;;;;;5010757;28;20117;-80
2022/09/07 06:25:49;;;;;;;9.95;3.08;;;;;;;;;;5011462;28;20520;-80
2022/09/07 06:28:15;;;;;;;8.70;3.13;;;;;;;;;;5003286;28;20034;-80
2022/09/07 06:30:41;;;;;;;12.05;2.47;;;;;;;;;;4994403;28;20184;-81
2022/09/07 06:33:07;;;;;;;14.25;3.55;;;;;;;;;;5007991;28;20481;-81
2022/09/07 06:35:33;;;;;;;15.05;3.25;;;;;;;;;;4999286;28;20062;-80
2022/09/07 06:37:59;;;;;;;12.10;3.40;;;;;;;;;;5001450;28;20060;-80
2022/09/07 06:40:25;;;;;;;12.15;4.22;;;;;;;;;;5010911;28;20493;-80
2022/09/07 06:42:51;;;;;;;13.38;2.00;;;;;;;;;;5011510;28;20044;-81
2022/09/07 06:45:17;;;;;;;10.85;2.60;;;;;;;;;;5006256;28;20038;-80
2022/09/07 06:47:43;;;;;;;10.63;2.97;;;;;;;;;;5011724;28;20030;-81
2022/09/07 06:50:11;;;;;;;17.35;3.28;;;;;;;;;;5017219;28;20403;-81
2022/09/07 06:52:37;;;;;;;9.25;2.80;;;;;;;;;;5011070;28;20034;-80
2022/09/07 06:55:03;;;;;;;12.18;3.53;;;;;;;;;;5010470;28;20533;-81
2022/09/07 06:57:29;;;;;;;11.70;3.75;;;;;;;;;;5000713;28;20077;-80
2022/09/07 06:59:55;;;;;;;12.27;3.58;;;;;;;;;;5005483;28;20026;-80
2022/09/07 07:02:21;;;;;;;10.80;2.60;;;;;;;;;;5014444;28;20099;-80
2022/09/07 07:04:47;;;;;;;19.83;3.50;;;;;;;;;;5006325;28;20055;-80
2022/09/07 07:07:14;;;;;;;12.55;3.30;;;;;;;;;;5001125;28;20077;-80
2022/09/07 07:09:40;;;;;;;11.07;2.55;;;;;;;;;;5000981;28;20039;-81
2022/09/07 07:12:06;;;;;;;13.32;3.00;;;;;;;;;;5001497;28;20703;-80
2022/09/07 07:14:34;;;;;;;12.18;2.40;;;;;;;;;;5004284;28;20049;-80
2022/09/07 07:17:00;;;;;;;9.93;2.20;;;;;;;;;;5007187;28;20036;-80
2022/09/07 07:19:26;;;;;;;12.68;2.70;;;;;;;;;;5003294;28;20033;-81
2022/09/07 07:21:52;;;;;;;12.77;2.72;;;;;;;;;;5000697;28;20387;-80
2022/09/07 07:24:18;;;;;;;9.98;2.53;;;;;;;;;;5010531;28;20033;-80
2022/09/07 07:26:47;;;;;;;10.30;2.55;;;;;;;;;;5011493;28;20042;-81
2022/09/07 07:29:13;;;;;;;14.13;2.20;;;;;;;;;;5010105;28;20049;-80
2022/09/07 07:31:39;;;;;;;12.35;2.90;;;;;;;;;;5001254;28;20468;-80
2022/09/07 07:34:06;;;;;;;10.07;2.20;;;;;;;;;;5009957;28;20022;-81
2022/09/07 07:36:32;;;;;;;9.00;2.53;;;;;;;;;;5005751;28;20121;-80
2022/09/07 07:38:58;;;;;;;7.72;2.13;;;;;;;;;;5003387;28;20072;-80
2022/09/07 07:41:26;;;;;;;11.05;2.20;;;;;;;;;;5008301;28;20030;-81
2022/09/07 07:43:55;;;;;;;13.48;2.65;;;;;;;;;;4998270;28;20034;-80
2022/09/07 07:46:23;;;;;;;13.75;2.30;;;;;;;;;;5005642;28;20731;-80
2022/09/07 07:48:49;;;;;;;12.05;2.67;;;;;;;;;;5007397;28;20034;-80
2022/09/07 07:51:16;;;;;;;11.48;2.85;;;;;;;;;;5007605;28;20054;-81
2022/09/07 07:53:43;;;;;;;10.02;2.67;;;;;;;;;;5002555;28;20049;-80
2022/09/07 07:56:09;;;;;;;10.25;2.40;;;;;;;;;;5005088;28;20447;-80
2022/09/07 07:58:36;;;;;;;8.25;2.20;;;;;;;;;;5004267;28;20057;-80
2022/09/07 08:01:03;;;;;;;8.57;2.25;;;;;;;;;;5007521;28;20071;-80
2022/09/07 08:03:30;;;;;;;10.40;2.03;;;;;;;;;;5011171;28;20062;-80
2022/09/07 08:05:56;;;;;;;9.45;2.22;;;;;;;;;;4999290;28;20037;-81
2022/09/07 08:08:22;;;;;;;12.77;2.33;;;;;;;;;;5008422;28;20116;-81
2022/09/07 08:10:49;;;;;;;9.77;2.90;;;;;;;;;;5005749;28;21085;-81
2022/09/07 08:13:15;;;;;;;16.95;3.10;;;;;;;;;;5006942;28;20407;-80
2022/09/07 08:15:45;;;;;;;14.45;2.33;;;;;;;;;;5006899;28;20038;-80
2022/09/07 08:18:12;;;;;;;8.70;2.58;;;;;;;;;;5007199;28;20026;-81
2022/09/07 08:20:41;;;;;;;8.43;2.53;;;;;;;;;;5008029;28;20030;-80
2022/09/07 08:23:07;;;;;;;12.13;2.67;;;;;;;;;;5008569;28;20038;-80
2022/09/07 08:25:34;;;;;;;11.93;2.47;;;;;;;;;;5011921;28;20074;-80
2022/09/07 08:28:00;;;;;;;11.02;2.45;;;;;;;;;;5005635;28;20069;-81
2022/09/07 08:30:26;;;;;;;10.88;2.35;;;;;;;;;;5007680;28;20045;-80
2022/09/07 08:32:52;;;;;;;11.68;2.55;;;;;;;;;;4999400;28;20059;-81
2022/09/07 08:35:19;;;;;;;7.40;1.75;;;;;;;;;;5007913;28;20478;-81
2022/09/07 08:37:44;;;;;;;10.13;1.77;;;;;;;;;;5000933;28;20037;-81
2022/09/07 08:40:19;;;;;;;11.73;2.28;;;;;;;;;;5003506;28;20042;-80
2022/09/07 08:42:45;;;;;;;12.82;2.78;;;;;;;;;;5005313;28;20030;-81
2022/09/07 08:45:16;;;;;;;10.63;2.28;;;;;;;;;;5001928;28;20038;-80
2022/09/07 08:47:45;;;;;;;13.10;2.38;;;;;;;;;;5003411;28;20622;-80
2022/09/07 08:50:23;;;;;;;11.57;2.22;;;;;;;;;;4997910;28;20045;-81
2022/09/07 08:52:49;;;;;;;9.93;1.98;;;;;;;;;;5004446;28;20080;-81
2022/09/07 08:55:26;;;;;;;13.05;3.35;;;;;;;;;;5011514;28;20451;-81
2022/09/07 08:57:56;;;;;;;13.45;2.40;;;;;;;;;;4999642;28;20030;-81
2022/09/07 09:00:22;;;;;;;8.70;1.98;;;;;;;;;;5008210;28;20026;-80
2022/09/07 09:02:48;;;;;;;13.57;2.58;;;;;;;;;;5008994;28;20804;-81
2022/09/07 09:05:18;;;;;;;12.27;2.15;;;;;;;;;;5005881;28;20042;-81
2022/09/07 09:07:53;;;;;;;12.02;1.92;;;;;;;;;;5005047;28;20145;-81
2022/09/07 09:10:26;;;;;;;6.55;1.98;;;;;;;;;;5007274;28;20073;-80
2022/09/07 09:12:55;;;;;;;8.82;2.10;;;;;;;;;;4999846;28;20038;-81
2022/09/07 09:15:21;;;;;;;11.00;2.38;;;;;;;;;;5007625;28;20042;-81
2022/09/07 09:18:06;;;;;;;14.15;2.33;;;;;;;;;;5000181;28;20042;-80
2022/09/07 09:20:32;;;;;;;11.80;2.25;;;;;;;;;;5000159;28;20026;-81
2022/09/07 09:23:04;;;;;;;9.68;2.22;;;;;;;;;;5003148;28;20060;-81
2022/09/07 09:25:32;;;;;;;15.52;2.08;;;;;;;;;;5007471;28;20038;-80
2022/09/07 09:27:58;;;;;;;10.18;2.50;;;;;;;;;;5007285;28;20116;-81
2022/09/07 09:30:25;;;;;;;11.82;1.77;;;;;;;;;;5004790;28;20113;-80
2022/09/07 09:32:53;;;;;;;18.13;2.30;;;;;;;;;;5001476;28;20037;-81
2022/09/07 09:35:28;;;;;;;10.27;1.73;;;;;;;;;;5005921;28;20065;-81
2022/09/07 09:37:56;;;;;;;9.57;1.90;;;;;;;;;;5000023;28;20040;-81
2022/09/07 09:40:29;;;;;;;10.52;2.00;;;;;;;;;;5001308;28;20129;-80
2022/09/07 09:43:14;;;;;;;12.15;2.00;;;;;;;;;;5008713;28;20041;-80
2022/09/07 09:45:44;;;;;;;11.85;1.65;;;;;;;;;;5010688;28;20068;-80
2022/09/07 09:48:15;;;;;;;16.20;2.55;;;;;;;;;;5005456;28;20080;-81
2022/09/07 09:50:45;;;;;;;6.43;2.03;;;;;;;;;;4999558;28;20045;-81
2022/09/07 09:53:23;;;;;;;9.65;2.22;;;;;;;;;;5006277;28;20031;-80
2022/09/07 09:55:51;;;;;;;7.55;1.88;;;;;;;;;;5000133;28;20191;-80
2022/09/07 09:58:27;;;;;;;8.85;2.15;;;;;;;;;;5006331;28;20032;-80
2022/09/07 10:01:02;;;;;;;10.40;1.88;;;;;;;;;;4997185;28;20042;-80
2022/09/07 10:03:30;;;;;;;18.58;2.25;;;;;;;;;;5004035;28;20030;-80
2022/09/07 10:05:56;;;;;;;12.82;1.92;;;;;;;;;;5004540;28;20072;-80
2022/09/07 10:08:25;;;;;;;10.20;2.53;;;;;;;;;;5012029;28;20069;-80
2022/09/07 10:10:52;;;;;;;9.20;2.13;;;;;;;;;;5009637;28;20040;-80
2022/09/07 10:13:23;;;;;;;12.15;2.20;;;;;;;;;;5010261;28;20034;-80
2022/09/07 10:15:50;;;;;;;12.95;2.58;;;;;;;;;;5006451;28;20038;-80
2022/09/07 10:18:24;;;;;;;16.00;3.17;;;;;;;;;;5010312;28;20056;-80
2022/09/07 10:20:50;;;;;;;8.90;2.63;;;;;;;;;;5009037;28;20104;-80
2022/09/07 10:23:20;;;;;;;11.80;2.03;;;;;;;;;;5011040;28;20080;-80
2022/09/07 10:25:47;;;;;;;9.95;2.00;;;;;;;;;;5000921;28;20043;-80
2022/09/07 10:28:20;;;;;;;10.90;2.72;;;;;;;;;;5010296;28;20037;-80
2022/09/07 10:31:05;;;;;;;9.93;3.08;;;;;;;;;;5014985;28;20036;-81
2022/09/07 10:33:40;;;;;;;9.82;2.42;;;;;;;;;;5007132;28;20030;-81
2022/09/07 10:36:30;;;;;;;13.45;2.40;;;;;;;;;;5002329;28;20030;-80
2022/09/07 10:39:22;;;;;;;10.23;2.30;;;;;;;;;;5007851;28;20661;-80
2022/09/07 10:41:52;;;;;;;9.35;2.05;;;;;;;;;;4995412;28;20194;-81
2022/09/07 10:44:24;;;;;;;11.48;2.22;;;;;;;;;;5006040;28;20145;-80
2022/09/07 10:47:09;;;;;;;12.27;2.20;;;;;;;;;;5003416;28;20062;-80
2022/09/07 10:49:42;;;;;;;8.63;2.15;;;;;;;;;;5006197;28;20483;-80
2022/09/07 10:52:21;;;;;;;13.25;2.47;;;;;;;;;;4999144;28;21489;-80
2022/09/07 10:54:47;;;;;;;11.98;2.55;;;;;;;;;;5005665;28;20168;-80
2022/09/07 10:57:13;;;;;;;11.55;2.40;;;;;;;;;;4997411;28;20030;-80
2022/09/07 10:59:39;;;;;;;12.55;1.98;;;;;;;;;;5010553;28;20042;-80
2022/09/07 11:02:23;;;;;;;14.88;2.65;;;;;;;;;;5010739;28;20029;-80
2022/09/07 11:04:58;;;;;;;10.07;2.30;;;;;;;;;;5001643;28;20406;-80
2022/09/07 11:07:51;;;;;;;15.73;3.53;;;;;;;;;;5006068;28;20491;-80
2022/09/07 11:10:20;;;;;;;11.30;2.30;;;;;;;;;;5001644;28;20046;-80
2022/09/07 11:12:47;;;;;;;16.25;2.97;;;;;;;;;;5006364;28;20174;-80
2022/09/07 11:15:12;;;;;;;9.07;1.90;;;;;;;;;;5001532;28;20034;-81
2022/09/07 11:17:43;;;;;;;12.68;1.83;;;;;;;;;;5006466;28;20391;-80
2022/09/07 11:20:22;;;;;;;13.63;2.33;;;;;;;;;;5006359;28;20030;-80
2022/09/07 11:22:51;;;;;;;7.07;2.10;;;;;;;;;;5006738;28;20034;-80
2022/09/07 11:25:30;;;;;;;12.07;2.10;;;;;;;;;;5008599;28;20038;-81
2022/09/07 11:28:29;;;;;;;13.00;2.40;;;;;;;;;;5015399;28;20034;-81
2022/09/07 11:30:57;;;;;;;11.73;1.92;;;;;;;;;;4972457;28;20061;-80
2022/09/07 11:33:26;;;;;;;12.20;2.10;;;;;;;;;;4996921;28;20022;-81
2022/09/07 11:36:06;;;;;;;8.52;2.13;;;;;;;;;;5008001;28;20069;-81
2022/09/07 11:38:39;;;;;;;11.98;3.30;;;;;;;;;;5008887;28;20473;-80
2022/09/07 11:41:14;;;;;;;11.85;2.22;;;;;;;;;;4993282;28;20085;-80
2022/09/07 11:43:48;;;;;;;11.88;1.42;;;;;;;;;;5000740;28;20038;-81
2022/09/07 11:46:23;;;;;;;10.85;2.08;;;;;;;;;;5008323;28;20384;-81
2022/09/07 11:48:55;;;;;;;9.23;1.60;;;;;;;;;;5000752;28;20062;-81
2022/09/07 11:51:23;;;;;;;12.10;2.20;;;;;;;;;;5007052;28;20038;-81
2022/09/07 11:53:59;;;;;;;9.68;1.63;;;;;;;;;;5000053;28;20029;-80
2022/09/07 11:56:27;;;;;;;11.75;1.90;;;;;;;;;;5014575;28;20041;-81
2022/09/07 11:59:10;;;;;;;13.48;2.45;;;;;;;;;;5007957;28;20112;-81
2022/09/07 12:01:46;;;;;;;9.13;2.17;;;;;;;;;;5006550;28;20616;-81
2022/09/07 12:04:31;;;;;;;11.15;2.08;;;;;;;;;;5008655;28;20561;-80
2022/09/07 12:07:23;;;;;;;9.18;2.30;;;;;;;;;;4983874;28;20077;-81
2022/09/07 12:10:08;;;;;;;8.45;1.67;;;;;;;;;;4959256;28;20058;-81
2022/09/07 12:12:34;;;;;;;8.05;1.63;;;;;;;;;;4981659;28;20038;-81
2022/09/07 12:15:16;;;;;;;6.82;1.88;;;;;;;;;;4989663;28;20373;-81
2022/09/07 12:17:42;;;;;;;9.32;1.85;;;;;;;;;;4980025;28;20027;-81
2022/09/07 12:20:14;;;;;;;9.80;1.75;;;;;;;;;;4988558;28;20042;-81
2022/09/07 12:22:57;;;;;;;8.00;1.65;;;;;;;;;;4989148;28;20034;-81
2022/09/07 12:25:23;;;;;;;10.23;1.85;;;;;;;;;;4988017;28;20070;-81
2022/09/07 12:27:49;;;;;;;10.30;1.67;;;;;;;;;;4984739;28;20030;-81
2022/09/07 12:30:17;;;;;;;11.27;2.58;;;;;;;;;;4980873;28;20038;-81
2022/09/07 12:32:50;;;;;;;10.75;1.90;;;;;;;;;;4983882;28;20038;-81
2022/09/07 12:35:28;;;;;;;10.45;2.22;;;;;;;;;;4985313;28;20030;-81
2022/09/07 12:37:55;;;;;;;10.15;2.25;;;;;;;;;;4982364;28;20478;-81
2022/09/07 12:40:27;;;;;;;5.00;1.27;;;;;;;;;;4980464;28;20050;-81
2022/09/07 12:43:11;;;;;;;7.68;2.35;;;;;;;;;;4981482;28;20031;-81
2022/09/07 12:45:37;;;;;;;15.07;2.22;;;;;;;;;;4979229;28;20113;-80
2022/09/07 12:48:16;;;;;;;14.90;2.67;;;;;;;;;;4988653;28;20133;-81
2022/09/07 12:50:42;;;;;;;9.35;2.08;;;;;;;;;;4991136;28;20035;-81
2022/09/07 12:53:26;;;;;;;11.95;2.42;;;;;;;;;;4987060;28;20022;-81
2022/09/07 12:55:55;;;;;;;9.95;2.40;;;;;;;;;;4983980;28;20042;-81
2022/09/07 12:58:37;;;;;;;10.05;1.73;;;;;;;;;;4988476;28;20122;-80
2022/09/07 13:01:21;;;;;;;13.60;2.90;;;;;;;;;;4987387;28;20040;-81
2022/09/07 13:04:23;;;;;;;11.95;2.75;;;;;;;;;;4989828;28;20117;-81
2022/09/07 13:06:57;;;;;;;10.88;2.42;;;;;;;;;;4928103;29;20068;-80
2022/09/07 13:09:40;;;;;;;7.43;1.80;;;;;;;;;;4975127;28;20042;-81
2022/09/07 13:12:24;;;;;;;13.15;2.53;;;;;;;;;;4978684;28;20045;-81
2022/09/07 13:14:57;;;;;;;8.95;1.95;;;;;;;;;;4983192;28;20042;-81
2022/09/07 13:17:28;;;;;;;8.00;1.77;;;;;;;;;;4972513;28;20027;-80
2022/09/07 13:19:54;;;;;;;10.85;2.10;;;;;;;;;;4986209;28;20040;-81
2022/09/07 13:22:29;;;;;;;11.70;2.08;;;;;;;;;;4990278;28;20030;-81
2022/09/07 13:24:58;;;;;;;9.18;2.28;;;;;;;;;;4993560;28;20111;-81
2022/09/07 13:27:28;;;;;;;9.80;2.03;;;;;;;;;;4982427;28;20025;-81
2022/09/07 13:30:01;;;;;;;12.27;2.03;;;;;;;;;;4992272;28;20034;-80
2022/09/07 13:32:31;;;;;;;11.93;2.28;;;;;;;;;;4992522;28;20069;-81
2022/09/07 13:35:04;;;;;;;8.50;1.42;;;;;;;;;;4979279;28;20038;-81
2022/09/07 13:37:43;;;;;;;11.98;2.30;;;;;;;;;;4991509;28;20599;-81
2022/09/07 13:40:10;;;;;;;8.95;1.85;;;;;;;;;;4982672;28;20465;-81
2022/09/07 13:42:37;;;;;;;7.43;1.88;;;;;;;;;;4991886;28;20464;-81
2022/09/07 13:45:05;;;;;;;9.43;1.83;;;;;;;;;;4984304;28;20081;-81
2022/09/07 13:47:31;;;;;;;14.25;2.53;;;;;;;;;;4989795;28;20033;-80
2022/09/07 13:50:15;;;;;;;12.02;2.33;;;;;;;;;;4986300;28;20034;-81
2022/09/07 13:53:00;;;;;;;9.82;1.92;;;;;;;;;;4991282;28;20419;-80
2022/09/07 13:55:26;;;;;;;10.73;2.13;;;;;;;;;;4988313;28;20034;-81
2022/09/07 13:58:07;;;;;;;11.30;1.90;;;;;;;;;;4987910;28;20158;-81
2022/09/07 14:00:33;;;;;;;11.52;2.35;;;;;;;;;;4990727;28;20146;-81
2022/09/07 14:03:02;;;;;;;10.25;3.00;;;;;;;;;;4984491;28;20030;-81
2022/09/07 14:05:28;;;;;;;9.25;1.75;;;;;;;;;;4992202;28;20587;-81
2022/09/07 14:07:54;;;;;;;8.77;2.30;;;;;;;;;;5010269;28;20077;-81
2022/09/07 14:10:22;;;;;;;12.25;2.50;;;;;;;;;;5006756;28;20045;-81
2022/09/07 14:12:50;;;;;;;8.50;1.75;;;;;;;;;;5008114;28;20038;-81
2022/09/07 14:15:16;;;;;;;10.98;2.15;;;;;;;;;;5010542;28;20081;-81
2022/09/07 14:17:42;;;;;;;10.52;2.72;;;;;;;;;;5005415;28;20030;-81
2022/09/07 14:20:12;;;;;;;11.20;1.67;;;;;;;;;;5006002;28;20509;-81
2022/09/07 14:22:39;;;;;;;11.48;2.10;;;;;;;;;;5004152;28;20522;-81
2022/09/07 14:25:07;;;;;;;11.30;1.88;;;;;;;;;;5011902;28;20069;-81
2022/09/07 14:27:37;;;;;;;12.95;2.13;;;;;;;;;;5007095;28;20037;-81
2022/09/07 14:30:22;;;;;;;8.80;1.75;;;;;;;;;;5002316;28;20033;-81
2022/09/07 14:32:49;;;;;;;10.85;2.00;;;;;;;;;;5008869;28;20034;-81
2022/09/07 14:35:17;;;;;;;14.13;2.38;;;;;;;;;;5000091;28;20125;-80
2022/09/07 14:37:43;;;;;;;11.75;1.95;;;;;;;;;;4999565;28;20032;-80
2022/09/07 14:40:14;;;;;;;10.35;2.33;;;;;;;;;;5010562;28;20041;-81
2022/09/07 14:42:41;;;;;;;11.18;1.92;;;;;;;;;;5010315;28;20037;-80
2022/09/07 14:45:19;;;;;;;14.40;2.92;;;;;;;;;;5007860;28;20040;-80
2022/09/07 14:47:46;;;;;;;10.13;1.92;;;;;;;;;;5008860;28;20403;-80
2022/09/07 14:50:39;;;;;;;10.05;2.00;;;;;;;;;;5018365;28;20502;-81